Grimsley, Tennessee
Current Conditions -  °F | °C
As of 5:53 AM on Thursday 18 Dec 2014 (Local Time) from KCSV Reporting Station
Overcast Overcast  
Wind Chill: 33°   Ceiling: 7500
Heat Index: 33°   Visibility: 7mi
Dew Point: 28°   Wind: 0mph
Humidity: 82%   Direction: NA
Pressure: 30.19"   Gusts: NA
Location:  36.27°N, 84.98°W
Report Text: KCSV 181153Z AUTO 00000KT 7SM OVC075 01/M02 A3019 RMK AO2 UPE00FZRAB00E13 SLP234 P0000 60001 70001 I1001 I6001 T00061022 10006 21011 51000
Loading
Personal Weather Stations






























Interactive Weather Map New forecast layout! Learn more

10-Day Weather Forecast

Advertisements
Track Severe Weather on mobile